Portada
METAR-TAF:

METAR-TAF

Aeroports :

Kuching, Malàisia

latitud: 01-29N, longitud: 110-20E, altitud: 27 m

Observació

L'informe es va fer fa 44 minuts, a les 16:30 UTC
Vent 2 kt amb direcció variable
Temperatura 28°C
Humitat 84%
Pressió 1010 hPa
Visibilitat: 1500 m
Escasses núvols a una alçada de 2000 ft
Cel ennuvolat a una alçada de 30000 ft
calitja

METAR: WBGG 211630Z VRB02KT 1500 HZ FEW020 BKN300 28/25 Q1010 NOSIG

Hora: 01:14 (17:14 UTC)

Pronòstic

L'informe es va fer fa 6 hores i 14 minuts, a les 11:00 UTC
Pronòstic vàlid del 21 a les 12 UTC al 22 a les 12 UTC
Vent 6 kt del Oest
Visibilitat: 2000 m
calitja
Temporalment
l' 22 a les 00 UTC al 22 a les 04 UTC
Vent 8 kt del Nord/Nord-Oest
Visibilitat: 4000 m
Núvols disperses a una alçada de 1600 ft
pluja

TAF: WBGG 211100Z 2112/2212 26006KT 2000 HZ VV/// TEMPO 2200/2204 34008KT 4000 RA SCT016

Observacions i pronòstics meteorològics de més de 4000 aeroports (METAR i TAF).

Les estacions disponibles són els punts grocs i vermells al mapa.

Posi el ratolí al punt desitjat per veure el nom de l'estació.

Feu clic per veure les observacions i els pronòstics meteorològics.

Per canviar el mapa: feu clic els botons verds amb una creu de color negre per apropar; al botó verd amb un guió per allunyar la imatge; o en les fletxes verdes per a mapes adjacents.


METAR-TAF: